Terminal Aerodrome Forecast
Issued by NWS Wilmington, NC

Home | Current Version | Previous Version | Text Only | Print | Product List | Glossary On
Versions: 1 2 3 4 5 6 7 8 9 10 11 12 13 14 15 16 17 18 19 20 21 22 23 24 25
000
FTUS42 KILM 221737
TAFMYR
TAF
KMYR 221737Z 2218/2318 18012KT P6SM VCSH SCT015 SCT060 BKN200
      TEMPO 2218/2220 4SM BR BKN005 BKN015
     FM222100 18010KT 4SM -SHRA BR SCT015 OVC025
     FM222300 19017G27KT 5SM TSRA BR BKN020CB OVC030
      TEMPO 2223/2303 VRB30G45KT 1SM +TSRA BR BKN007 OVC015CB
     FM230500 25010KT P6SM SCT030 BKN080
      TEMPO 2306/2309 BKN010
     FM231100 22007KT P6SM BKN250
     FM231400 22010KT P6SM VCSH SCT025 OVC100=

USA.gov is the U.S. government's official web portal to all federal, state and local government web resources and services.